sensor_id;sensor_type;location;lat;lon;timestamp;P1;durP1;ratioP1;P2;durP2;ratioP2
7471;SDS011;3777;48.722;8.110;2023-09-30T00:01:00;7.10;;;2.97;;
7471;SDS011;3777;48.722;8.110;2023-09-30T00:03:28;4.23;;;2.60;;
7471;SDS011;3777;48.722;8.110;2023-09-30T00:05:55;4.03;;;2.57;;
7471;SDS011;3777;48.722;8.110;2023-09-30T00:08:21;5.33;;;3.10;;
7471;SDS011;3777;48.722;8.110;2023-09-30T00:10:48;5.27;;;3.03;;
7471;SDS011;3777;48.722;8.110;2023-09-30T00:13:16;4.70;;;2.63;;
7471;SDS011;3777;48.722;8.110;2023-09-30T00:15:43;5.17;;;2.90;;
7471;SDS011;3777;48.722;8.110;2023-09-30T00:18:10;5.27;;;3.03;;
7471;SDS011;3777;48.722;8.110;2023-09-30T00:20:38;5.40;;;2.97;;
7471;SDS011;3777;48.722;8.110;2023-09-30T00:23:05;4.73;;;2.83;;
7471;SDS011;3777;48.722;8.110;2023-09-30T00:25:32;3.90;;;2.90;;
7471;SDS011;3777;48.722;8.110;2023-09-30T00:27:59;5.53;;;2.77;;
7471;SDS011;3777;48.722;8.110;2023-09-30T00:30:27;4.00;;;2.80;;
7471;SDS011;3777;48.722;8.110;2023-09-30T00:32:54;5.40;;;2.83;;
7471;SDS011;3777;48.722;8.110;2023-09-30T00:35:20;3.80;;;2.40;;
7471;SDS011;3777;48.722;8.110;2023-09-30T00:37:47;4.83;;;2.77;;
7471;SDS011;3777;48.722;8.110;2023-09-30T00:40:14;4.47;;;2.80;;
7471;SDS011;3777;48.722;8.110;2023-09-30T00:42:41;6.27;;;3.20;;
7471;SDS011;3777;48.722;8.110;2023-09-30T00:45:09;6.57;;;3.07;;
7471;SDS011;3777;48.722;8.110;2023-09-30T00:47:37;4.53;;;2.93;;
7471;SDS011;3777;48.722;8.110;2023-09-30T00:50:05;3.90;;;2.80;;
7471;SDS011;3777;48.722;8.110;2023-09-30T00:52:35;5.20;;;3.10;;
7471;SDS011;3777;48.722;8.110;2023-09-30T00:55:04;4.37;;;3.10;;
7471;SDS011;3777;48.722;8.110;2023-09-30T00:57:32;4.17;;;2.60;;
7471;SDS011;3777;48.722;8.110;2023-09-30T01:00:00;4.47;;;2.70;;
7471;SDS011;3777;48.722;8.110;2023-09-30T01:02:28;3.87;;;2.80;;
7471;SDS011;3777;48.722;8.110;2023-09-30T01:04:56;3.97;;;2.90;;
7471;SDS011;3777;48.722;8.110;2023-09-30T01:07:23;5.43;;;3.07;;
7471;SDS011;3777;48.722;8.110;2023-09-30T01:09:50;4.23;;;2.80;;
7471;SDS011;3777;48.722;8.110;2023-09-30T01:12:17;4.87;;;3.10;;
7471;SDS011;3777;48.722;8.110;2023-09-30T01:14:43;4.77;;;2.87;;
7471;SDS011;3777;48.722;8.110;2023-09-30T01:17:10;3.33;;;2.97;;
7471;SDS011;3777;48.722;8.110;2023-09-30T01:19:38;5.00;;;3.10;;
7471;SDS011;3777;48.722;8.110;2023-09-30T01:22:08;5.57;;;2.87;;
7471;SDS011;3777;48.722;8.110;2023-09-30T01:24:38;4.03;;;2.67;;
7471;SDS011;3777;48.722;8.110;2023-09-30T01:27:06;4.80;;;3.10;;
7471;SDS011;3777;48.722;8.110;2023-09-30T01:29:33;4.10;;;2.77;;
7471;SDS011;3777;48.722;8.110;2023-09-30T01:32:00;5.17;;;2.77;;
7471;SDS011;3777;48.722;8.110;2023-09-30T01:34:26;4.20;;;2.83;;
7471;SDS011;3777;48.722;8.110;2023-09-30T01:36:53;4.47;;;2.73;;
7471;SDS011;3777;48.722;8.110;2023-09-30T01:39:21;4.50;;;2.80;;
7471;SDS011;3777;48.722;8.110;2023-09-30T01:41:48;6.67;;;3.20;;
7471;SDS011;3777;48.722;8.110;2023-09-30T01:44:15;5.53;;;3.00;;
7471;SDS011;3777;48.722;8.110;2023-09-30T01:46:42;4.87;;;3.13;;
7471;SDS011;3777;48.722;8.110;2023-09-30T01:49:08;4.83;;;2.90;;
7471;SDS011;3777;48.722;8.110;2023-09-30T01:51:36;4.30;;;3.00;;
7471;SDS011;3777;48.722;8.110;2023-09-30T01:54:03;5.27;;;2.97;;
7471;SDS011;3777;48.722;8.110;2023-09-30T01:56:31;7.00;;;2.83;;
7471;SDS011;3777;48.722;8.110;2023-09-30T01:58:59;5.07;;;2.90;;
7471;SDS011;3777;48.722;8.110;2023-09-30T02:01:25;4.50;;;2.80;;
7471;SDS011;3777;48.722;8.110;2023-09-30T02:03:52;5.57;;;2.90;;
7471;SDS011;3777;48.722;8.110;2023-09-30T02:06:19;7.40;;;2.90;;
7471;SDS011;3777;48.722;8.110;2023-09-30T02:08:46;3.17;;;2.33;;
7471;SDS011;3777;48.722;8.110;2023-09-30T02:11:13;4.47;;;2.63;;
7471;SDS011;3777;48.722;8.110;2023-09-30T02:13:41;5.63;;;2.97;;
7471;SDS011;3777;48.722;8.110;2023-09-30T02:16:12;5.83;;;3.00;;
7471;SDS011;3777;48.722;8.110;2023-09-30T02:18:39;4.80;;;2.60;;
7471;SDS011;3777;48.722;8.110;2023-09-30T02:21:10;4.90;;;2.83;;
7471;SDS011;3777;48.722;8.110;2023-09-30T02:23:36;4.03;;;2.63;;
7471;SDS011;3777;48.722;8.110;2023-09-30T02:26:03;5.43;;;2.80;;
7471;SDS011;3777;48.722;8.110;2023-09-30T02:28:31;6.93;;;3.00;;
7471;SDS011;3777;48.722;8.110;2023-09-30T02:31:00;4.80;;;2.67;;
7471;SDS011;3777;48.722;8.110;2023-09-30T02:33:27;6.07;;;2.90;;
7471;SDS011;3777;48.722;8.110;2023-09-30T02:35:54;4.23;;;2.87;;
7471;SDS011;3777;48.722;8.110;2023-09-30T02:38:22;3.83;;;2.87;;
7471;SDS011;3777;48.722;8.110;2023-09-30T02:40:50;4.57;;;2.80;;
7471;SDS011;3777;48.722;8.110;2023-09-30T02:43:17;5.80;;;3.10;;
7471;SDS011;3777;48.722;8.110;2023-09-30T02:45:45;5.80;;;3.10;;
7471;SDS011;3777;48.722;8.110;2023-09-30T02:48:13;4.87;;;2.93;;
7471;SDS011;3777;48.722;8.110;2023-09-30T02:50:41;4.23;;;3.20;;
7471;SDS011;3777;48.722;8.110;2023-09-30T02:53:09;4.73;;;3.10;;
7471;SDS011;3777;48.722;8.110;2023-09-30T02:55:36;5.73;;;2.80;;
7471;SDS011;3777;48.722;8.110;2023-09-30T02:58:03;6.50;;;3.13;;
7471;SDS011;3777;48.722;8.110;2023-09-30T03:00:30;4.77;;;3.10;;
7471;SDS011;3777;48.722;8.110;2023-09-30T03:02:59;4.30;;;3.10;;
7471;SDS011;3777;48.722;8.110;2023-09-30T03:05:29;7.47;;;3.63;;
7471;SDS011;3777;48.722;8.110;2023-09-30T03:07:58;4.13;;;2.93;;
7471;SDS011;3777;48.722;8.110;2023-09-30T03:10:25;4.87;;;3.20;;
7471;SDS011;3777;48.722;8.110;2023-09-30T03:12:52;7.63;;;3.70;;
7471;SDS011;3777;48.722;8.110;2023-09-30T03:15:19;7.60;;;3.17;;
7471;SDS011;3777;48.722;8.110;2023-09-30T03:17:47;6.10;;;3.27;;
7471;SDS011;3777;48.722;8.110;2023-09-30T03:20:14;5.83;;;3.37;;
7471;SDS011;3777;48.722;8.110;2023-09-30T03:22:45;5.17;;;2.90;;
7471;SDS011;3777;48.722;8.110;2023-09-30T03:25:13;5.63;;;3.20;;
7471;SDS011;3777;48.722;8.110;2023-09-30T03:27:42;6.20;;;3.60;;
7471;SDS011;3777;48.722;8.110;2023-09-30T03:30:09;7.63;;;3.70;;
7471;SDS011;3777;48.722;8.110;2023-09-30T03:32:38;4.83;;;3.07;;
7471;SDS011;3777;48.722;8.110;2023-09-30T03:35:05;7.63;;;3.20;;
7471;SDS011;3777;48.722;8.110;2023-09-30T03:37:35;4.33;;;3.20;;
7471;SDS011;3777;48.722;8.110;2023-09-30T03:40:04;3.70;;;3.07;;
7471;SDS011;3777;48.722;8.110;2023-09-30T03:42:38;5.00;;;3.03;;
7471;SDS011;3777;48.722;8.110;2023-09-30T03:45:05;5.43;;;3.50;;
7471;SDS011;3777;48.722;8.110;2023-09-30T03:47:35;6.30;;;3.30;;
7471;SDS011;3777;48.722;8.110;2023-09-30T03:50:02;4.13;;;3.03;;
7471;SDS011;3777;48.722;8.110;2023-09-30T03:52:30;5.47;;;3.40;;
7471;SDS011;3777;48.722;8.110;2023-09-30T03:54:58;6.03;;;3.50;;
7471;SDS011;3777;48.722;8.110;2023-09-30T03:57:26;5.77;;;3.47;;
7471;SDS011;3777;48.722;8.110;2023-09-30T03:59:53;5.30;;;3.10;;
7471;SDS011;3777;48.722;8.110;2023-09-30T04:02:20;6.37;;;3.30;;
7471;SDS011;3777;48.722;8.110;2023-09-30T04:04:47;6.20;;;3.83;;
7471;SDS011;3777;48.722;8.110;2023-09-30T04:07:16;3.93;;;2.80;;
7471;SDS011;3777;48.722;8.110;2023-09-30T04:09:43;5.10;;;3.10;;
7471;SDS011;3777;48.722;8.110;2023-09-30T04:12:09;5.43;;;3.50;;
7471;SDS011;3777;48.722;8.110;2023-09-30T04:14:38;5.53;;;3.50;;
7471;SDS011;3777;48.722;8.110;2023-09-30T04:17:04;4.73;;;3.03;;
7471;SDS011;3777;48.722;8.110;2023-09-30T04:19:31;5.43;;;3.30;;
7471;SDS011;3777;48.722;8.110;2023-09-30T04:21:58;6.00;;;3.20;;
7471;SDS011;3777;48.722;8.110;2023-09-30T04:24:25;5.73;;;3.50;;
7471;SDS011;3777;48.722;8.110;2023-09-30T04:26:53;6.53;;;3.40;;
7471;SDS011;3777;48.722;8.110;2023-09-30T04:29:27;5.33;;;3.73;;
7471;SDS011;3777;48.722;8.110;2023-09-30T04:31:56;5.03;;;3.40;;
7471;SDS011;3777;48.722;8.110;2023-09-30T04:34:22;5.17;;;3.50;;
7471;SDS011;3777;48.722;8.110;2023-09-30T04:36:49;5.87;;;3.30;;
7471;SDS011;3777;48.722;8.110;2023-09-30T04:39:17;6.80;;;3.60;;
7471;SDS011;3777;48.722;8.110;2023-09-30T04:41:43;5.87;;;3.03;;
7471;SDS011;3777;48.722;8.110;2023-09-30T04:44:12;5.70;;;3.97;;
7471;SDS011;3777;48.722;8.110;2023-09-30T04:46:38;5.77;;;3.40;;
7471;SDS011;3777;48.722;8.110;2023-09-30T04:49:07;6.43;;;3.50;;
7471;SDS011;3777;48.722;8.110;2023-09-30T04:51:34;6.63;;;3.93;;
7471;SDS011;3777;48.722;8.110;2023-09-30T04:54:02;5.63;;;3.50;;
7471;SDS011;3777;48.722;8.110;2023-09-30T04:56:32;5.03;;;3.47;;
7471;SDS011;3777;48.722;8.110;2023-09-30T04:58:58;4.73;;;3.37;;
7471;SDS011;3777;48.722;8.110;2023-09-30T05:01:26;5.83;;;3.27;;
7471;SDS011;3777;48.722;8.110;2023-09-30T05:03:53;4.73;;;3.30;;
7471;SDS011;3777;48.722;8.110;2023-09-30T05:06:21;6.53;;;3.40;;
7471;SDS011;3777;48.722;8.110;2023-09-30T05:08:48;4.00;;;3.10;;
7471;SDS011;3777;48.722;8.110;2023-09-30T05:11:15;6.27;;;3.70;;
7471;SDS011;3777;48.722;8.110;2023-09-30T05:13:42;6.17;;;3.37;;
7471;SDS011;3777;48.722;8.110;2023-09-30T05:16:08;5.93;;;4.00;;
7471;SDS011;3777;48.722;8.110;2023-09-30T05:18:38;4.90;;;3.63;;
7471;SDS011;3777;48.722;8.110;2023-09-30T05:21:05;7.80;;;3.70;;
7471;SDS011;3777;48.722;8.110;2023-09-30T05:23:33;5.47;;;3.70;;
7471;SDS011;3777;48.722;8.110;2023-09-30T05:26:01;6.53;;;3.80;;
7471;SDS011;3777;48.722;8.110;2023-09-30T05:28:29;5.53;;;3.37;;
7471;SDS011;3777;48.722;8.110;2023-09-30T05:30:56;5.27;;;3.30;;
7471;SDS011;3777;48.722;8.110;2023-09-30T05:33:23;7.77;;;3.80;;
7471;SDS011;3777;48.722;8.110;2023-09-30T05:35:50;5.80;;;3.40;;
7471;SDS011;3777;48.722;8.110;2023-09-30T05:38:17;4.03;;;3.20;;
7471;SDS011;3777;48.722;8.110;2023-09-30T05:40:46;5.13;;;3.40;;
7471;SDS011;3777;48.722;8.110;2023-09-30T05:43:14;5.07;;;3.17;;
7471;SDS011;3777;48.722;8.110;2023-09-30T05:45:41;4.93;;;3.57;;
7471;SDS011;3777;48.722;8.110;2023-09-30T05:48:14;5.13;;;3.20;;
7471;SDS011;3777;48.722;8.110;2023-09-30T05:50:41;5.03;;;3.53;;
7471;SDS011;3777;48.722;8.110;2023-09-30T05:53:09;4.37;;;3.17;;
7471;SDS011;3777;48.722;8.110;2023-09-30T05:55:37;6.57;;;3.77;;
7471;SDS011;3777;48.722;8.110;2023-09-30T05:58:05;7.03;;;4.10;;
7471;SDS011;3777;48.722;8.110;2023-09-30T06:00:32;6.00;;;3.73;;
7471;SDS011;3777;48.722;8.110;2023-09-30T06:03:00;5.33;;;3.70;;
7471;SDS011;3777;48.722;8.110;2023-09-30T06:05:29;7.87;;;3.73;;
7471;SDS011;3777;48.722;8.110;2023-09-30T06:07:57;6.13;;;3.93;;
7471;SDS011;3777;48.722;8.110;2023-09-30T06:10:25;5.30;;;3.70;;
7471;SDS011;3777;48.722;8.110;2023-09-30T06:12:52;4.50;;;3.23;;
7471;SDS011;3777;48.722;8.110;2023-09-30T06:15:21;4.20;;;3.50;;
7471;SDS011;3777;48.722;8.110;2023-09-30T06:17:51;5.80;;;3.50;;
7471;SDS011;3777;48.722;8.110;2023-09-30T06:20:18;6.47;;;3.93;;
7471;SDS011;3777;48.722;8.110;2023-09-30T06:22:47;4.40;;;3.53;;
7471;SDS011;3777;48.722;8.110;2023-09-30T06:25:15;5.67;;;3.50;;
7471;SDS011;3777;48.722;8.110;2023-09-30T06:27:42;7.40;;;3.87;;
7471;SDS011;3777;48.722;8.110;2023-09-30T06:30:11;7.13;;;4.00;;
7471;SDS011;3777;48.722;8.110;2023-09-30T06:32:39;6.47;;;4.17;;
7471;SDS011;3777;48.722;8.110;2023-09-30T06:35:07;10.07;;;4.13;;
7471;SDS011;3777;48.722;8.110;2023-09-30T06:37:35;5.53;;;3.80;;
7471;SDS011;3777;48.722;8.110;2023-09-30T06:40:03;9.93;;;4.10;;
7471;SDS011;3777;48.722;8.110;2023-09-30T06:42:32;5.70;;;3.53;;
7471;SDS011;3777;48.722;8.110;2023-09-30T06:45:00;7.33;;;4.23;;
7471;SDS011;3777;48.722;8.110;2023-09-30T06:47:26;5.70;;;4.03;;
7471;SDS011;3777;48.722;8.110;2023-09-30T06:49:59;6.67;;;4.10;;
7471;SDS011;3777;48.722;8.110;2023-09-30T06:52:32;7.70;;;4.00;;
7471;SDS011;3777;48.722;8.110;2023-09-30T06:54:59;5.97;;;3.93;;
7471;SDS011;3777;48.722;8.110;2023-09-30T06:57:26;8.77;;;4.30;;
7471;SDS011;3777;48.722;8.110;2023-09-30T06:59:53;5.87;;;4.23;;
7471;SDS011;3777;48.722;8.110;2023-09-30T07:02:20;6.67;;;4.40;;
7471;SDS011;3777;48.722;8.110;2023-09-30T07:04:47;7.03;;;4.30;;
7471;SDS011;3777;48.722;8.110;2023-09-30T07:07:15;5.37;;;4.50;;
7471;SDS011;3777;48.722;8.110;2023-09-30T07:09:43;7.57;;;4.83;;
7471;SDS011;3777;48.722;8.110;2023-09-30T07:12:10;6.80;;;4.70;;
7471;SDS011;3777;48.722;8.110;2023-09-30T07:14:37;8.70;;;4.43;;
7471;SDS011;3777;48.722;8.110;2023-09-30T07:17:04;7.53;;;4.70;;
7471;SDS011;3777;48.722;8.110;2023-09-30T07:19:31;7.17;;;4.60;;
7471;SDS011;3777;48.722;8.110;2023-09-30T07:21:58;5.33;;;4.50;;
7471;SDS011;3777;48.722;8.110;2023-09-30T07:24:26;7.83;;;4.27;;
7471;SDS011;3777;48.722;8.110;2023-09-30T07:26:52;5.87;;;4.23;;
7471;SDS011;3777;48.722;8.110;2023-09-30T07:29:20;9.50;;;4.63;;
7471;SDS011;3777;48.722;8.110;2023-09-30T07:31:47;8.83;;;4.50;;
7471;SDS011;3777;48.722;8.110;2023-09-30T07:34:14;8.60;;;4.57;;
7471;SDS011;3777;48.722;8.110;2023-09-30T07:36:41;6.40;;;4.47;;
7471;SDS011;3777;48.722;8.110;2023-09-30T07:39:08;5.90;;;4.03;;
7471;SDS011;3777;48.722;8.110;2023-09-30T07:41:36;6.47;;;4.30;;
7471;SDS011;3777;48.722;8.110;2023-09-30T07:44:03;6.80;;;4.30;;
7471;SDS011;3777;48.722;8.110;2023-09-30T07:46:30;6.10;;;4.27;;
7471;SDS011;3777;48.722;8.110;2023-09-30T07:48:57;7.57;;;4.25;;
7471;SDS011;3777;48.722;8.110;2023-09-30T07:51:24;8.48;;;4.38;;
7471;SDS011;3777;48.722;8.110;2023-09-30T07:53:51;5.80;;;4.05;;
7471;SDS011;3777;48.722;8.110;2023-09-30T07:56:21;6.68;;;4.40;;
7471;SDS011;3777;48.722;8.110;2023-09-30T07:58:50;6.45;;;4.18;;
7471;SDS011;3777;48.722;8.110;2023-09-30T08:01:16;6.30;;;4.25;;
7471;SDS011;3777;48.722;8.110;2023-09-30T08:03:44;7.53;;;4.43;;
7471;SDS011;3777;48.722;8.110;2023-09-30T08:06:11;5.32;;;4.10;;
7471;SDS011;3777;48.722;8.110;2023-09-30T08:08:38;8.40;;;4.28;;
7471;SDS011;3777;48.722;8.110;2023-09-30T08:11:05;8.68;;;4.50;;
7471;SDS011;3777;48.722;8.110;2023-09-30T08:13:32;5.40;;;4.20;;
7471;SDS011;3777;48.722;8.110;2023-09-30T08:16:00;8.95;;;4.32;;
7471;SDS011;3777;48.722;8.110;2023-09-30T08:18:27;6.38;;;4.22;;
7471;SDS011;3777;48.722;8.110;2023-09-30T08:20:54;7.75;;;4.40;;
7471;SDS011;3777;48.722;8.110;2023-09-30T08:23:21;6.35;;;4.35;;
7471;SDS011;3777;48.722;8.110;2023-09-30T08:25:47;7.03;;;3.95;;
7471;SDS011;3777;48.722;8.110;2023-09-30T08:28:14;4.60;;;4.05;;
7471;SDS011;3777;48.722;8.110;2023-09-30T08:30:41;6.43;;;4.00;;
7471;SDS011;3777;48.722;8.110;2023-09-30T08:33:09;6.10;;;3.83;;
7471;SDS011;3777;48.722;8.110;2023-09-30T08:35:36;6.10;;;3.38;;
7471;SDS011;3777;48.722;8.110;2023-09-30T08:38:03;5.80;;;3.60;;
7471;SDS011;3777;48.722;8.110;2023-09-30T08:40:30;9.48;;;3.55;;
7471;SDS011;3777;48.722;8.110;2023-09-30T08:42:57;5.82;;;3.85;;
7471;SDS011;3777;48.722;8.110;2023-09-30T08:45:24;7.97;;;3.53;;
7471;SDS011;3777;48.722;8.110;2023-09-30T08:47:54;5.43;;;3.67;;
7471;SDS011;3777;48.722;8.110;2023-09-30T08:50:22;4.82;;;3.42;;
7471;SDS011;3777;48.722;8.110;2023-09-30T08:52:50;5.22;;;3.58;;
7471;SDS011;3777;48.722;8.110;2023-09-30T08:55:17;4.85;;;3.33;;
7471;SDS011;3777;48.722;8.110;2023-09-30T08:57:44;7.03;;;3.50;;
7471;SDS011;3777;48.722;8.110;2023-09-30T09:00:14;9.43;;;3.65;;
7471;SDS011;3777;48.722;8.110;2023-09-30T09:02:41;7.25;;;3.78;;
7471;SDS011;3777;48.722;8.110;2023-09-30T09:05:09;4.60;;;3.30;;
7471;SDS011;3777;48.722;8.110;2023-09-30T09:07:37;6.07;;;3.42;;
7471;SDS011;3777;48.722;8.110;2023-09-30T09:10:05;5.80;;;3.70;;
7471;SDS011;3777;48.722;8.110;2023-09-30T09:12:33;7.47;;;3.47;;
7471;SDS011;3777;48.722;8.110;2023-09-30T09:15:01;5.13;;;3.17;;
7471;SDS011;3777;48.722;8.110;2023-09-30T09:17:41;5.18;;;3.38;;
7471;SDS011;3777;48.722;8.110;2023-09-30T09:20:09;4.90;;;3.30;;
7471;SDS011;3777;48.722;8.110;2023-09-30T09:22:40;6.15;;;3.60;;
7471;SDS011;3777;48.722;8.110;2023-09-30T09:25:08;5.50;;;3.63;;
7471;SDS011;3777;48.722;8.110;2023-09-30T09:27:35;5.68;;;2.97;;
7471;SDS011;3777;48.722;8.110;2023-09-30T09:30:18;7.22;;;3.30;;
7471;SDS011;3777;48.722;8.110;2023-09-30T09:32:59;5.05;;;3.25;;
7471;SDS011;3777;48.722;8.110;2023-09-30T09:35:27;5.20;;;3.30;;
7471;SDS011;3777;48.722;8.110;2023-09-30T09:37:58;4.90;;;3.10;;
7471;SDS011;3777;48.722;8.110;2023-09-30T09:40:26;7.18;;;3.13;;
7471;SDS011;3777;48.722;8.110;2023-09-30T09:42:54;5.95;;;2.95;;
7471;SDS011;3777;48.722;8.110;2023-09-30T09:45:21;6.25;;;3.22;;
7471;SDS011;3777;48.722;8.110;2023-09-30T09:47:49;5.78;;;3.25;;
7471;SDS011;3777;48.722;8.110;2023-09-30T09:50:18;4.63;;;2.85;;
7471;SDS011;3777;48.722;8.110;2023-09-30T09:52:46;4.72;;;3.00;;
7471;SDS011;3777;48.722;8.110;2023-09-30T09:55:17;4.60;;;3.38;;
7471;SDS011;3777;48.722;8.110;2023-09-30T09:57:45;4.45;;;3.17;;
7471;SDS011;3777;48.722;8.110;2023-09-30T10:00:12;4.35;;;2.67;;
7471;SDS011;3777;48.722;8.110;2023-09-30T10:02:41;4.38;;;2.90;;
7471;SDS011;3777;48.722;8.110;2023-09-30T10:05:08;4.10;;;2.58;;
7471;SDS011;3777;48.722;8.110;2023-09-30T10:07:37;3.30;;;2.30;;
7471;SDS011;3777;48.722;8.110;2023-09-30T10:10:10;4.15;;;2.60;;
7471;SDS011;3777;48.722;8.110;2023-09-30T10:12:41;10.07;;;2.95;;
7471;SDS011;3777;48.722;8.110;2023-09-30T10:18:01;4.05;;;2.45;;
7471;SDS011;3777;48.722;8.110;2023-09-30T10:20:30;4.55;;;2.80;;
7471;SDS011;3777;48.722;8.110;2023-09-30T10:25:51;24.65;;;3.70;;
7471;SDS011;3777;48.722;8.110;2023-09-30T10:28:36;3.90;;;2.50;;
7471;SDS011;3777;48.722;8.110;2023-09-30T10:31:12;5.25;;;2.90;;
7471;SDS011;3777;48.722;8.110;2023-09-30T10:36:44;4.50;;;2.90;;
7471;SDS011;3777;48.722;8.110;2023-09-30T10:39:12;4.82;;;3.08;;
7471;SDS011;3777;48.722;8.110;2023-09-30T10:41:49;5.32;;;3.00;;
7471;SDS011;3777;48.722;8.110;2023-09-30T10:44:34;4.88;;;3.10;;
7471;SDS011;3777;48.722;8.110;2023-09-30T10:50:02;4.97;;;2.95;;
7471;SDS011;3777;48.722;8.110;2023-09-30T10:52:29;3.50;;;2.80;;
7471;SDS011;3777;48.722;8.110;2023-09-30T10:55:01;4.85;;;2.95;;
7471;SDS011;3777;48.722;8.110;2023-09-30T10:57:30;5.97;;;3.20;;
7471;SDS011;3777;48.722;8.110;2023-09-30T11:00:11;5.88;;;3.45;;
7471;SDS011;3777;48.722;8.110;2023-09-30T11:02:48;6.03;;;3.20;;
7471;SDS011;3777;48.722;8.110;2023-09-30T11:05:16;6.00;;;3.28;;
7471;SDS011;3777;48.722;8.110;2023-09-30T11:07:43;5.18;;;3.30;;
7471;SDS011;3777;48.722;8.110;2023-09-30T11:10:15;5.82;;;3.40;;
7471;SDS011;3777;48.722;8.110;2023-09-30T11:12:53;4.90;;;3.30;;
7471;SDS011;3777;48.722;8.110;2023-09-30T11:15:22;5.68;;;3.50;;
7471;SDS011;3777;48.722;8.110;2023-09-30T11:17:49;5.28;;;3.28;;
7471;SDS011;3777;48.722;8.110;2023-09-30T11:20:18;5.05;;;3.47;;
7471;SDS011;3777;48.722;8.110;2023-09-30T11:22:46;5.05;;;3.15;;
7471;SDS011;3777;48.722;8.110;2023-09-30T11:25:16;6.82;;;3.97;;
7471;SDS011;3777;48.722;8.110;2023-09-30T11:27:44;7.20;;;3.40;;
7471;SDS011;3777;48.722;8.110;2023-09-30T11:30:12;4.93;;;3.45;;
7471;SDS011;3777;48.722;8.110;2023-09-30T11:32:41;6.93;;;4.03;;
7471;SDS011;3777;48.722;8.110;2023-09-30T11:35:08;4.72;;;3.30;;
7471;SDS011;3777;48.722;8.110;2023-09-30T11:37:36;6.22;;;3.92;;
7471;SDS011;3777;48.722;8.110;2023-09-30T11:40:10;5.80;;;3.63;;
7471;SDS011;3777;48.722;8.110;2023-09-30T11:42:39;5.93;;;3.53;;
7471;SDS011;3777;48.722;8.110;2023-09-30T11:45:18;5.47;;;3.85;;
7471;SDS011;3777;48.722;8.110;2023-09-30T11:47:47;7.80;;;4.30;;
7471;SDS011;3777;48.722;8.110;2023-09-30T11:50:14;8.05;;;4.00;;
7471;SDS011;3777;48.722;8.110;2023-09-30T11:52:44;5.35;;;3.75;;
7471;SDS011;3777;48.722;8.110;2023-09-30T11:55:11;5.95;;;4.05;;
7471;SDS011;3777;48.722;8.110;2023-09-30T11:57:39;5.65;;;3.78;;
7471;SDS011;3777;48.722;8.110;2023-09-30T12:00:06;5.95;;;3.95;;
7471;SDS011;3777;48.722;8.110;2023-09-30T12:02:38;6.88;;;4.15;;
7471;SDS011;3777;48.722;8.110;2023-09-30T12:05:08;6.22;;;3.67;;
7471;SDS011;3777;48.722;8.110;2023-09-30T12:07:36;5.68;;;3.90;;
7471;SDS011;3777;48.722;8.110;2023-09-30T12:10:06;6.38;;;3.90;;
7471;SDS011;3777;48.722;8.110;2023-09-30T12:12:33;7.47;;;4.68;;
7471;SDS011;3777;48.722;8.110;2023-09-30T12:15:00;8.85;;;4.10;;
7471;SDS011;3777;48.722;8.110;2023-09-30T12:17:27;7.88;;;3.97;;
7471;SDS011;3777;48.722;8.110;2023-09-30T12:19:54;7.03;;;3.92;;
7471;SDS011;3777;48.722;8.110;2023-09-30T12:22:22;5.82;;;3.95;;
7471;SDS011;3777;48.722;8.110;2023-09-30T12:24:49;6.30;;;4.28;;
7471;SDS011;3777;48.722;8.110;2023-09-30T12:27:17;6.97;;;4.40;;
7471;SDS011;3777;48.722;8.110;2023-09-30T12:29:43;9.40;;;4.53;;
7471;SDS011;3777;48.722;8.110;2023-09-30T12:32:13;8.35;;;4.57;;
7471;SDS011;3777;48.722;8.110;2023-09-30T12:34:40;7.00;;;4.38;;
7471;SDS011;3777;48.722;8.110;2023-09-30T12:37:07;7.43;;;4.72;;
7471;SDS011;3777;48.722;8.110;2023-09-30T12:39:35;7.60;;;4.78;;
7471;SDS011;3777;48.722;8.110;2023-09-30T12:42:01;6.97;;;4.18;;
7471;SDS011;3777;48.722;8.110;2023-09-30T12:44:33;7.22;;;4.25;;
7471;SDS011;3777;48.722;8.110;2023-09-30T12:47:00;6.57;;;3.92;;
7471;SDS011;3777;48.722;8.110;2023-09-30T12:49:28;7.07;;;4.25;;
7471;SDS011;3777;48.722;8.110;2023-09-30T12:51:54;6.82;;;3.85;;
7471;SDS011;3777;48.722;8.110;2023-09-30T12:54:22;6.32;;;4.15;;
7471;SDS011;3777;48.722;8.110;2023-09-30T12:56:50;7.43;;;4.45;;
7471;SDS011;3777;48.722;8.110;2023-09-30T12:59:17;7.05;;;4.20;;
7471;SDS011;3777;48.722;8.110;2023-09-30T13:01:45;6.68;;;4.68;;
7471;SDS011;3777;48.722;8.110;2023-09-30T13:04:13;6.97;;;4.38;;
7471;SDS011;3777;48.722;8.110;2023-09-30T13:06:39;7.57;;;4.60;;
7471;SDS011;3777;48.722;8.110;2023-09-30T13:09:06;6.78;;;3.90;;
7471;SDS011;3777;48.722;8.110;2023-09-30T13:11:34;9.38;;;4.70;;
7471;SDS011;3777;48.722;8.110;2023-09-30T13:14:02;9.48;;;5.50;;
7471;SDS011;3777;48.722;8.110;2023-09-30T13:16:29;7.43;;;4.85;;
7471;SDS011;3777;48.722;8.110;2023-09-30T13:18:56;7.82;;;4.80;;
7471;SDS011;3777;48.722;8.110;2023-09-30T13:21:23;7.95;;;4.57;;
7471;SDS011;3777;48.722;8.110;2023-09-30T13:23:50;9.63;;;4.88;;
7471;SDS011;3777;48.722;8.110;2023-09-30T13:26:17;7.05;;;4.90;;
7471;SDS011;3777;48.722;8.110;2023-09-30T13:28:44;7.63;;;4.80;;
7471;SDS011;3777;48.722;8.110;2023-09-30T13:31:12;9.45;;;5.30;;
7471;SDS011;3777;48.722;8.110;2023-09-30T13:33:39;9.95;;;5.70;;
7471;SDS011;3777;48.722;8.110;2023-09-30T13:36:07;7.53;;;4.70;;
7471;SDS011;3777;48.722;8.110;2023-09-30T13:38:33;7.78;;;4.97;;
7471;SDS011;3777;48.722;8.110;2023-09-30T13:41:01;7.50;;;4.60;;
7471;SDS011;3777;48.722;8.110;2023-09-30T13:43:28;9.45;;;4.90;;
7471;SDS011;3777;48.722;8.110;2023-09-30T13:45:54;7.05;;;4.45;;
7471;SDS011;3777;48.722;8.110;2023-09-30T13:48:23;8.82;;;5.07;;
7471;SDS011;3777;48.722;8.110;2023-09-30T13:50:50;10.07;;;5.07;;
7471;SDS011;3777;48.722;8.110;2023-09-30T13:53:17;7.95;;;4.65;;
7471;SDS011;3777;48.722;8.110;2023-09-30T13:55:43;7.95;;;4.65;;
7471;SDS011;3777;48.722;8.110;2023-09-30T13:58:10;7.03;;;4.90;;
7471;SDS011;3777;48.722;8.110;2023-09-30T14:00:37;10.70;;;4.80;;
7471;SDS011;3777;48.722;8.110;2023-09-30T14:03:04;10.25;;;4.93;;
7471;SDS011;3777;48.722;8.110;2023-09-30T14:05:33;6.85;;;5.03;;
7471;SDS011;3777;48.722;8.110;2023-09-30T14:08:00;8.48;;;4.30;;
7471;SDS011;3777;48.722;8.110;2023-09-30T14:10:28;7.72;;;4.82;;
7471;SDS011;3777;48.722;8.110;2023-09-30T14:12:55;7.28;;;4.70;;
7471;SDS011;3777;48.722;8.110;2023-09-30T14:15:22;8.73;;;5.25;;
7471;SDS011;3777;48.722;8.110;2023-09-30T14:17:53;8.32;;;5.03;;
7471;SDS011;3777;48.722;8.110;2023-09-30T14:20:20;9.18;;;5.57;;
7471;SDS011;3777;48.722;8.110;2023-09-30T14:22:49;8.02;;;5.00;;
7471;SDS011;3777;48.722;8.110;2023-09-30T14:25:16;9.63;;;5.70;;
7471;SDS011;3777;48.722;8.110;2023-09-30T14:27:43;9.15;;;5.35;;
7471;SDS011;3777;48.722;8.110;2023-09-30T14:30:10;7.32;;;5.10;;
7471;SDS011;3777;48.722;8.110;2023-09-30T14:32:38;8.90;;;5.25;;
7471;SDS011;3777;48.722;8.110;2023-09-30T14:35:05;9.32;;;5.57;;
7471;SDS011;3777;48.722;8.110;2023-09-30T14:37:33;6.85;;;4.68;;
7471;SDS011;3777;48.722;8.110;2023-09-30T14:40:01;10.00;;;5.90;;
7471;SDS011;3777;48.722;8.110;2023-09-30T14:42:30;10.00;;;6.13;;
7471;SDS011;3777;48.722;8.110;2023-09-30T14:44:57;8.43;;;5.55;;
7471;SDS011;3777;48.722;8.110;2023-09-30T14:47:24;10.73;;;5.82;;
7471;SDS011;3777;48.722;8.110;2023-09-30T14:49:51;9.45;;;5.70;;
7471;SDS011;3777;48.722;8.110;2023-09-30T14:52:17;10.40;;;5.85;;
7471;SDS011;3777;48.722;8.110;2023-09-30T14:54:44;8.10;;;5.50;;
7471;SDS011;3777;48.722;8.110;2023-09-30T14:57:12;12.35;;;6.72;;
7471;SDS011;3777;48.722;8.110;2023-09-30T14:59:41;9.10;;;6.07;;
7471;SDS011;3777;48.722;8.110;2023-09-30T15:02:07;13.25;;;6.10;;
7471;SDS011;3777;48.722;8.110;2023-09-30T15:04:35;9.25;;;5.65;;
7471;SDS011;3777;48.722;8.110;2023-09-30T15:07:02;10.18;;;6.05;;
7471;SDS011;3777;48.722;8.110;2023-09-30T15:09:29;10.95;;;5.60;;
7471;SDS011;3777;48.722;8.110;2023-09-30T15:11:57;8.65;;;5.57;;
7471;SDS011;3777;48.722;8.110;2023-09-30T15:14:25;10.30;;;5.60;;
7471;SDS011;3777;48.722;8.110;2023-09-30T15:16:52;10.77;;;6.20;;
7471;SDS011;3777;48.722;8.110;2023-09-30T15:19:18;9.57;;;5.93;;
7471;SDS011;3777;48.722;8.110;2023-09-30T15:21:45;10.10;;;5.88;;
7471;SDS011;3777;48.722;8.110;2023-09-30T15:24:12;11.18;;;6.78;;
7471;SDS011;3777;48.722;8.110;2023-09-30T15:26:39;9.65;;;6.22;;
7471;SDS011;3777;48.722;8.110;2023-09-30T15:29:05;9.38;;;6.20;;
7471;SDS011;3777;48.722;8.110;2023-09-30T15:31:34;12.10;;;6.22;;